Time;durP1;ratioP1;P1;durP2;ratioP2;P2;SDS_P1;SDS_P2;PMS_P1;PMS_P2;Temp;Humidity;BMP_temperature;BMP_pressure;BME280_temperature;BME280_humidity;BME280_pressure;Samples;Min_cycle;Max_cycle;Signal;HPM_P1;HPM_P2
2021/10/10 00:00:25;;;;;;;22.43;7.80;;;;;;;6.29;41.26;101979.49;126270;1096;104194;-79
2021/10/10 00:03:13;;;;;;;25.90;7.87;;;;;;;6.22;41.50;101966.80;126289;1097;104192;-78
2021/10/10 00:05:41;;;;;;;26.17;7.83;;;;;;;6.18;41.42;101962.13;126184;1099;104175;-78
2021/10/10 00:08:09;;;;;;;25.53;7.97;;;;;;;6.15;41.15;101973.22;126272;1099;104188;-78
2021/10/10 00:10:37;;;;;;;23.77;8.03;;;;;;;6.13;41.31;101968.70;126334;1099;104300;-78
2021/10/10 00:13:05;;;;;;;23.60;7.57;;;;;;;6.11;41.39;101966.88;126314;1098;104277;-78
2021/10/10 00:15:33;;;;;;;21.43;7.63;;;;;;;6.07;41.88;101967.41;126235;1099;104213;-78
2021/10/10 00:18:01;;;;;;;18.00;6.73;;;;;;;6.02;41.57;101976.58;126345;1096;104152;-79
2021/10/10 00:20:29;;;;;;;20.67;8.47;;;;;;;6.00;42.16;101974.63;126296;1099;104296;-77
2021/10/10 00:22:57;;;;;;;20.37;7.97;;;;;;;5.94;42.22;101973.34;126384;1096;104205;-77
2021/10/10 00:25:26;;;;;;;20.03;7.77;;;;;;;5.90;42.10;101980.80;126295;1096;104149;-78
2021/10/10 00:27:56;;;;;;;20.40;8.20;;;;;;;5.87;42.10;101972.74;126321;1099;104149;-78
2021/10/10 00:30:25;;;;;;;20.67;8.43;;;;;;;5.82;42.29;101976.70;126347;1099;104146;-78
2021/10/10 00:32:53;;;;;;;25.43;7.47;;;;;;;5.77;42.38;101971.12;126304;1099;104150;-78
2021/10/10 00:35:21;;;;;;;21.93;8.10;;;;;;;5.72;42.51;101968.16;126281;1099;104257;-78
2021/10/10 00:37:49;;;;;;;24.40;7.33;;;;;;;5.67;42.61;101972.11;126322;1096;108119;-78
2021/10/10 00:40:17;;;;;;;21.17;7.30;;;;;;;5.65;42.90;101967.55;126336;1096;104775;-78
2021/10/10 00:42:45;;;;;;;27.03;8.90;;;;;;;5.62;42.84;101967.31;126288;1096;104160;-78
2021/10/10 00:45:12;;;;;;;22.93;8.63;;;;;;;5.58;42.75;101973.98;126284;1099;104672;-78
2021/10/10 00:47:42;;;;;;;24.17;8.37;;;;;;;5.54;43.39;101964.99;126275;1097;104205;-78
2021/10/10 00:50:11;;;;;;;21.63;8.20;;;;;;;5.51;43.36;101967.35;126252;1099;104271;-78
2021/10/10 00:52:43;;;;;;;20.53;8.23;;;;;;;5.48;43.54;101971.42;126368;1099;104225;-79
2021/10/10 00:55:12;;;;;;;20.93;8.53;;;;;;;5.42;43.24;101973.53;126233;1099;104300;-78
2021/10/10 00:57:45;;;;;;;27.60;8.73;;;;;;;5.37;43.52;101974.06;126265;1098;104257;-78
2021/10/10 01:00:14;;;;;;;23.30;8.87;;;;;;;5.32;43.23;101974.50;126332;1096;104233;-77
2021/10/10 01:02:43;;;;;;;22.17;9.23;;;;;;;5.25;44.09;101970.50;126319;1096;104159;-78
2021/10/10 01:05:12;;;;;;;26.85;9.80;;;;;;;5.20;44.57;101971.80;126374;1096;104136;-78
2021/10/10 01:07:40;;;;;;;24.77;9.63;;;;;;;5.14;44.43;101966.09;126243;1099;104268;-78
2021/10/10 01:10:11;;;;;;;23.03;9.83;;;;;;;5.07;44.72;101963.80;126319;1096;104198;-78
2021/10/10 01:12:41;;;;;;;26.97;9.80;;;;;;;5.00;45.29;101963.30;126351;1099;104152;-77
2021/10/10 01:15:11;;;;;;;25.33;9.83;;;;;;;4.93;45.48;101966.17;126335;1099;104290;-78
2021/10/10 01:17:40;;;;;;;23.47;9.83;;;;;;;4.86;46.16;101964.77;126309;1096;104152;-79
2021/10/10 01:20:11;;;;;;;24.10;10.60;;;;;;;4.80;45.46;101963.34;126325;1099;104140;-79
2021/10/10 01:22:39;;;;;;;25.65;10.35;;;;;;;4.74;45.81;101950.77;126373;1096;104175;-78
2021/10/10 01:25:08;;;;;;;29.77;11.27;;;;;;;4.70;45.83;101952.98;126355;1096;104239;-79
2021/10/10 01:27:36;;;;;;;31.00;10.90;;;;;;;4.63;46.22;101955.08;126282;1096;104191;-78
2021/10/10 01:30:05;;;;;;;24.90;11.10;;;;;;;4.60;46.77;101957.42;126359;1099;104217;-78
2021/10/10 01:32:33;;;;;;;26.30;11.50;;;;;;;4.57;46.84;101959.77;126300;1098;104150;-78
2021/10/10 01:35:01;;;;;;;27.43;11.90;;;;;;;4.53;46.67;101964.58;126346;1096;104188;-78
2021/10/10 01:37:29;;;;;;;26.97;11.33;;;;;;;4.45;48.69;101966.53;126314;1096;104141;-78
2021/10/10 01:39:56;;;;;;;30.90;11.40;;;;;;;4.37;47.82;101964.99;126309;1096;104207;-78
2021/10/10 01:42:24;;;;;;;26.67;11.53;;;;;;;4.37;47.21;101959.80;126284;1099;104216;-78
2021/10/10 01:44:52;;;;;;;28.90;11.63;;;;;;;4.37;48.03;101975.39;126334;1096;104425;-78
2021/10/10 01:47:20;;;;;;;26.17;10.30;;;;;;;4.30;49.00;101969.67;126291;1096;104284;-78
2021/10/10 01:49:48;;;;;;;28.93;10.83;;;;;;;4.27;48.00;101971.08;126316;1099;104330;-78
2021/10/10 01:52:16;;;;;;;28.40;11.20;;;;;;;4.23;47.66;101982.91;126295;1096;104178;-79
2021/10/10 01:54:44;;;;;;;25.80;10.03;;;;;;;4.20;49.11;101981.75;126346;1098;104166;-78
2021/10/10 01:57:12;;;;;;;24.97;11.10;;;;;;;4.17;48.77;101984.09;126254;1099;104143;-78
2021/10/10 01:59:39;;;;;;;27.23;10.27;;;;;;;4.11;49.98;101987.06;126308;1096;104147;-78
2021/10/10 02:02:07;;;;;;;23.93;9.90;;;;;;;4.08;48.79;101987.73;126354;1096;104145;-78
2021/10/10 02:04:35;;;;;;;24.33;10.07;;;;;;;4.06;48.94;101985.77;126301;1096;104258;-78
2021/10/10 02:07:03;;;;;;;23.80;9.40;;;;;;;4.01;49.80;101992.27;126309;1096;104142;-78
2021/10/10 02:09:31;;;;;;;26.70;10.70;;;;;;;3.96;49.55;101990.17;126334;1099;104153;-78
2021/10/10 02:11:59;;;;;;;27.17;10.10;;;;;;;3.92;49.80;101990.67;126342;1099;104155;-78
2021/10/10 02:14:31;;;;;;;24.87;10.27;;;;;;;3.87;49.52;101986.78;126385;1099;104822;-77
2021/10/10 02:17:01;;;;;;;29.52;10.28;;;;;;;3.83;49.54;101984.69;126304;1099;104205;-78
2021/10/10 02:19:29;;;;;;;25.87;9.43;;;;;;;3.81;49.75;101991.45;126277;1096;104201;-78
2021/10/10 02:21:57;;;;;;;28.83;9.47;;;;;;;3.76;50.32;101988.45;126333;1099;104510;-79
2021/10/10 02:24:25;;;;;;;26.63;9.93;;;;;;;3.73;50.23;101977.80;126352;1096;104143;-77
2021/10/10 02:26:52;;;;;;;25.97;9.50;;;;;;;3.72;50.91;101980.26;126366;1096;104191;-78
2021/10/10 02:29:21;;;;;;;26.13;9.60;;;;;;;3.68;51.39;101979.09;126227;1096;104220;-78
2021/10/10 02:31:49;;;;;;;25.85;9.45;;;;;;;3.64;52.91;101982.19;126321;1099;104621;-78
2021/10/10 02:34:18;;;;;;;27.73;9.93;;;;;;;3.57;52.23;101978.16;126343;1098;104149;-79
2021/10/10 02:36:47;;;;;;;28.23;10.40;;;;;;;3.53;52.65;101977.75;126332;1099;104172;-78
2021/10/10 02:39:15;;;;;;;27.57;9.97;;;;;;;3.49;52.32;101981.77;126198;1099;104274;-78
2021/10/10 02:41:43;;;;;;;26.33;10.07;;;;;;;3.44;54.61;101972.66;126292;1098;104140;-78
2021/10/10 02:44:13;;;;;;;24.90;10.47;;;;;;;3.41;52.73;101982.76;126326;1096;104507;-79
2021/10/10 02:46:43;;;;;;;26.23;9.70;;;;;;;3.36;53.55;101979.76;126340;1096;104197;-78
2021/10/10 02:49:11;;;;;;;29.03;9.70;;;;;;;3.34;53.21;101981.32;126304;1097;105553;-79
2021/10/10 02:51:39;;;;;;;24.30;9.90;;;;;;;3.32;53.23;101980.28;126350;1099;104197;-78
2021/10/10 02:54:07;;;;;;;24.93;9.07;;;;;;;3.29;54.29;101980.02;126334;1097;104162;-78
2021/10/10 02:56:36;;;;;;;25.60;9.53;;;;;;;3.28;54.43;101979.88;126307;1099;104274;-78
2021/10/10 02:59:04;;;;;;;25.90;9.40;;;;;;;3.29;54.21;101976.48;126298;1096;104271;-78
2021/10/10 03:01:32;;;;;;;26.70;10.47;;;;;;;3.27;54.58;101971.16;126371;1096;104281;-78
2021/10/10 03:04:00;;;;;;;26.23;9.77;;;;;;;3.27;54.67;101971.16;126352;1096;104287;-78
2021/10/10 03:06:28;;;;;;;30.43;10.40;;;;;;;3.24;54.00;101971.82;126291;1096;104149;-78
2021/10/10 03:08:56;;;;;;;29.13;10.47;;;;;;;3.23;55.49;101971.69;126258;1096;104147;-77
2021/10/10 03:11:24;;;;;;;32.67;10.17;;;;;;;3.22;54.60;101975.94;126326;1099;104153;-78
2021/10/10 03:13:52;;;;;;;29.43;10.10;;;;;;;3.20;54.85;101972.31;126372;1099;104153;-78
2021/10/10 03:16:20;;;;;;;27.37;10.77;;;;;;;3.17;54.73;101978.92;126339;1099;104707;-78
2021/10/10 03:18:48;;;;;;;26.50;10.03;;;;;;;3.16;55.77;101974.49;126276;1099;104149;-77
2021/10/10 03:21:16;;;;;;;28.90;10.87;;;;;;;3.13;54.82;101975.16;126369;1096;104223;-77
2021/10/10 03:23:43;;;;;;;22.67;9.57;;;;;;;3.11;54.22;101965.41;126350;1096;104273;-77
2021/10/10 03:26:12;;;;;;;26.63;9.60;;;;;;;3.09;54.05;101970.45;126334;1099;104165;-77
2021/10/10 03:28:40;;;;;;;23.70;9.40;;;;;;;3.06;54.33;101973.67;126312;1096;104152;-78
2021/10/10 03:31:08;;;;;;;24.10;9.40;;;;;;;3.03;54.46;101972.50;126326;1098;104159;-78
2021/10/10 03:33:35;;;;;;;28.93;9.73;;;;;;;3.01;54.30;101974.05;126326;1099;104157;-78
2021/10/10 03:36:04;;;;;;;22.73;9.23;;;;;;;2.97;55.00;101970.25;126323;1099;104634;-78
2021/10/10 03:38:32;;;;;;;28.23;10.50;;;;;;;2.94;54.26;101969.08;126344;1098;104708;-78
2021/10/10 03:40:59;;;;;;;23.40;9.60;;;;;;;2.93;54.32;101972.44;126319;1096;104283;-77
2021/10/10 03:43:28;;;;;;;25.20;9.83;;;;;;;2.90;54.04;101960.13;126283;1096;104406;-78
2021/10/10 03:45:56;;;;;;;29.93;9.80;;;;;;;2.88;54.07;101959.98;126350;1099;104143;-78
2021/10/10 03:48:24;;;;;;;25.53;9.63;;;;;;;2.88;54.63;101962.58;126321;1096;104168;-79
2021/10/10 03:50:52;;;;;;;26.63;9.70;;;;;;;2.86;54.66;101963.20;126293;1096;104277;-79
2021/10/10 03:53:23;;;;;;;22.23;9.20;;;;;;;2.86;53.98;101964.10;126295;1099;104267;-78
2021/10/10 03:55:51;;;;;;;26.43;10.17;;;;;;;2.83;54.78;101973.30;126310;1099;104139;-78
2021/10/10 03:58:20;;;;;;;25.63;10.07;;;;;;;2.80;55.48;101976.51;126361;1099;104195;-79
2021/10/10 04:00:49;;;;;;;25.50;9.77;;;;;;;2.79;55.95;101979.89;126269;1096;104169;-79
2021/10/10 04:03:17;;;;;;;23.47;10.03;;;;;;;2.75;55.14;101982.97;126357;1096;104198;-79
2021/10/10 04:05:46;;;;;;;25.93;10.37;;;;;;;2.73;55.14;101981.00;126296;1099;104177;-78
2021/10/10 04:08:14;;;;;;;28.13;10.07;;;;;;;2.69;55.24;101979.82;126232;1099;104197;-78
2021/10/10 04:10:42;;;;;;;25.90;10.67;;;;;;;2.65;54.65;101977.70;126290;1096;104150;-78
2021/10/10 04:13:10;;;;;;;22.97;9.43;;;;;;;2.65;55.04;101985.48;126281;1099;104181;-78
2021/10/10 04:15:41;;;;;;;29.80;10.53;;;;;;;2.65;55.10;101982.89;126387;1099;104143;-79
2021/10/10 04:18:09;;;;;;;28.57;9.37;;;;;;;2.62;55.61;101983.55;126340;1099;104858;-77
2021/10/10 04:20:37;;;;;;;28.50;9.73;;;;;;;2.58;57.17;101977.94;126262;1099;104150;-78
2021/10/10 04:23:06;;;;;;;24.17;9.97;;;;;;;2.51;56.38;101972.20;126354;1096;104226;-78
2021/10/10 04:25:33;;;;;;;27.10;9.40;;;;;;;2.48;56.79;101969.33;126312;1099;104137;-77
2021/10/10 04:28:01;;;;;;;24.70;9.77;;;;;;;2.44;56.41;101962.03;126321;1096;104188;-77
2021/10/10 04:30:29;;;;;;;26.73;9.90;;;;;;;2.46;56.42;101969.94;126289;1096;104222;-79
2021/10/10 04:32:57;;;;;;;25.33;9.27;;;;;;;2.47;55.70;101972.67;126289;1099;104319;-78
2021/10/10 04:35:28;;;;;;;29.10;10.23;;;;;;;2.48;56.26;101979.69;126335;1099;104150;-78
2021/10/10 04:37:56;;;;;;;26.70;9.50;;;;;;;2.49;56.43;101978.00;126324;1099;104149;-79
2021/10/10 04:40:24;;;;;;;23.17;9.03;;;;;;;2.50;57.32;101978.14;126301;1098;104137;-78
2021/10/10 04:42:52;;;;;;;28.47;11.00;;;;;;;2.49;56.72;101973.75;126199;1099;104152;-79
2021/10/10 04:45:21;;;;;;;24.80;10.27;;;;;;;2.50;56.57;101972.05;126140;1096;104146;-79
2021/10/10 04:47:49;;;;;;;25.10;9.47;;;;;;;2.52;56.62;101970.50;126312;1096;104171;-78
2021/10/10 04:50:17;;;;;;;25.90;9.70;;;;;;;2.50;57.81;101966.88;126310;1099;104162;-78
2021/10/10 04:52:45;;;;;;;23.97;8.77;;;;;;;2.48;57.46;101964.14;126335;1096;104579;-78
2021/10/10 04:55:16;;;;;;;21.90;9.53;;;;;;;2.49;57.36;101967.63;126359;1099;104277;-79
2021/10/10 04:57:44;;;;;;;26.80;9.87;;;;;;;2.50;56.85;101972.95;126314;1099;104140;-78
2021/10/10 05:00:13;;;;;;;26.53;9.30;;;;;;;2.55;57.24;101972.48;126373;1099;104271;-77
2021/10/10 05:02:41;;;;;;;29.67;10.80;;;;;;;2.58;56.38;101985.72;126316;1096;104277;-78
2021/10/10 05:05:11;;;;;;;26.87;10.13;;;;;;;2.62;56.73;101985.23;126337;1096;104172;-78
2021/10/10 05:07:39;;;;;;;29.33;9.93;;;;;;;2.65;56.92;101982.89;126386;1096;104255;-78
2021/10/10 05:10:09;;;;;;;26.33;9.27;;;;;;;2.69;57.81;101974.63;126358;1096;104323;-77
2021/10/10 05:12:37;;;;;;;24.80;8.80;;;;;;;2.72;58.62;101979.20;126280;1099;104201;-77
2021/10/10 05:15:06;;;;;;;26.43;8.87;;;;;;;2.73;58.15;101981.93;126274;1099;104168;-77
2021/10/10 05:17:34;;;;;;;25.77;9.53;;;;;;;2.78;58.07;101988.44;126310;1097;104322;-78
2021/10/10 05:20:03;;;;;;;27.00;9.40;;;;;;;2.83;57.46;101984.56;126251;1099;104210;-78
2021/10/10 05:22:31;;;;;;;25.15;9.40;;;;;;;2.90;57.72;101987.71;126224;1096;104248;-78
2021/10/10 05:25:00;;;;;;;23.00;9.70;;;;;;;2.95;58.13;101992.55;126337;1096;104149;-78
2021/10/10 05:27:28;;;;;;;28.07;9.43;;;;;;;2.99;57.91;101983.36;126303;1096;104140;-78
2021/10/10 05:29:57;;;;;;;25.50;9.10;;;;;;;3.05;57.43;101990.03;126356;1096;104139;-78
2021/10/10 05:32:25;;;;;;;27.97;10.27;;;;;;;3.14;57.12;101991.61;126292;1099;104296;-78
2021/10/10 05:34:53;;;;;;;30.60;10.10;;;;;;;3.21;57.01;101994.90;126187;1099;104143;-79
2021/10/10 05:37:22;;;;;;;28.63;10.30;;;;;;;3.31;56.95;101998.31;126250;1099;104161;-78
2021/10/10 05:39:50;;;;;;;24.73;9.93;;;;;;;3.36;57.46;101997.92;126308;1099;104156;-78
2021/10/10 05:42:18;;;;;;;25.10;9.23;;;;;;;3.43;57.67;101996.80;126299;1099;104159;-79
2021/10/10 05:44:46;;;;;;;26.33;10.13;;;;;;;3.47;57.54;101987.59;126283;1096;104242;-78
2021/10/10 05:47:14;;;;;;;24.10;9.40;;;;;;;3.53;57.06;101994.22;126282;1096;104268;-79
2021/10/10 05:49:42;;;;;;;28.10;9.80;;;;;;;3.62;56.89;101990.64;126306;1096;104191;-78
2021/10/10 05:52:10;;;;;;;26.50;9.13;;;;;;;3.72;56.78;101982.86;126261;1099;104213;-79
2021/10/10 05:54:39;;;;;;;24.60;8.93;;;;;;;3.83;57.06;101978.59;126352;1099;104166;-79
2021/10/10 05:57:09;;;;;;;24.73;9.03;;;;;;;3.93;56.68;101976.92;126349;1099;104284;-78
2021/10/10 05:59:38;;;;;;;24.80;8.93;;;;;;;4.05;56.66;101973.55;126369;1099;104272;-78
2021/10/10 06:02:07;;;;;;;24.90;8.70;;;;;;;4.14;56.03;101972.67;126230;1098;104243;-77
2021/10/10 06:04:34;;;;;;;25.93;9.80;;;;;;;4.22;55.57;101970.69;126205;1099;104152;-77
2021/10/10 06:07:02;;;;;;;23.53;9.33;;;;;;;4.29;56.07;101974.73;126235;1099;104149;-77
2021/10/10 06:09:30;;;;;;;27.53;9.80;;;;;;;4.35;56.34;101980.45;126259;1099;104284;-78
2021/10/10 06:11:59;;;;;;;24.87;9.57;;;;;;;4.45;55.50;101987.33;126152;1099;104178;-78
2021/10/10 06:14:29;;;;;;;21.10;8.63;;;;;;;4.53;56.07;101986.27;126189;1099;104636;-78
2021/10/10 06:17:00;;;;;;;21.90;8.65;;;;;;;4.59;55.41;101980.69;126232;1099;103675;-77
2021/10/10 06:19:32;;;;;;;24.17;9.17;;;;;;;4.65;55.62;101984.70;126228;1099;104309;-78
2021/10/10 06:21:59;;;;;;;26.60;9.35;;;;;;;4.75;55.76;101982.86;126240;1099;104404;-78
2021/10/10 06:24:27;;;;;;;23.37;8.90;;;;;;;4.83;55.92;101987.00;126119;1099;104444;-78
2021/10/10 06:26:55;;;;;;;22.77;9.10;;;;;;;4.90;55.55;101989.33;126200;1099;104312;-77
2021/10/10 06:29:25;;;;;;;27.23;9.90;;;;;;;4.99;55.25;101984.89;126214;1099;104303;-78
2021/10/10 06:31:53;;;;;;;23.87;9.07;;;;;;;5.09;55.17;101978.73;126211;1099;104207;-77
2021/10/10 06:34:21;;;;;;;23.90;8.80;;;;;;;5.19;55.24;101975.21;126182;1099;104653;-79
2021/10/10 06:36:49;;;;;;;26.33;9.60;;;;;;;5.30;55.29;101976.98;126198;1099;104287;-78
2021/10/10 06:39:17;;;;;;;24.00;9.30;;;;;;;5.43;55.21;101968.45;126239;1099;104152;-78
2021/10/10 06:41:46;;;;;;;24.00;9.27;;;;;;;5.59;54.77;101970.56;126341;1099;104150;-78
2021/10/10 06:44:15;;;;;;;25.47;9.40;;;;;;;5.72;54.91;101962.05;126317;1096;104168;-78
2021/10/10 06:46:44;;;;;;;24.23;8.97;;;;;;;5.87;54.58;101964.92;126348;1099;104147;-77
2021/10/10 06:49:13;;;;;;;22.87;9.07;;;;;;;6.02;54.03;101970.47;126295;1096;104288;-77
2021/10/10 06:51:41;;;;;;;26.47;9.17;;;;;;;6.15;53.92;101978.43;126333;1096;104146;-78
2021/10/10 06:54:09;;;;;;;23.40;9.00;;;;;;;6.32;54.21;101979.73;126269;1097;104203;-78
2021/10/10 06:56:37;;;;;;;29.13;10.23;;;;;;;6.47;53.50;101983.51;126336;1099;104278;-78
2021/10/10 06:59:05;;;;;;;23.27;9.77;;;;;;;6.62;53.28;101973.34;126327;1099;104284;-78
2021/10/10 07:01:34;;;;;;;26.43;9.30;;;;;;;6.77;53.01;101970.95;126257;1099;104270;-78
2021/10/10 07:04:02;;;;;;;24.43;10.03;;;;;;;6.95;52.65;101962.66;126306;1096;104216;-78
2021/10/10 07:06:30;;;;;;;25.10;9.17;;;;;;;7.08;52.00;101962.78;126272;1096;104239;-77
2021/10/10 07:08:57;;;;;;;24.53;9.07;;;;;;;7.23;51.50;101970.84;126356;1096;104195;-78
2021/10/10 07:11:25;;;;;;;23.20;9.13;;;;;;;7.36;51.30;101960.47;126338;1096;104252;-78
2021/10/10 07:13:53;;;;;;;23.10;9.27;;;;;;;7.45;51.38;101968.06;126219;1099;104140;-77
2021/10/10 07:16:26;;;;;;;23.40;8.70;;;;;;;7.55;51.06;101953.95;126346;1099;104636;-78
2021/10/10 07:18:55;;;;;;;25.17;8.83;;;;;;;7.66;51.39;101952.09;126305;1099;104192;-79
2021/10/10 07:21:38;;;;;;;21.07;8.83;;;;;;;7.76;49.87;101954.58;126319;1099;104158;-79
2021/10/10 07:26:49;;;;;;;21.77;8.93;;;;;;;7.98;48.25;101950.81;126305;1096;104149;-77
2021/10/10 07:29:17;;;;;;;24.27;9.47;;;;;;;8.05;48.04;101947.84;126292;1099;104165;-78
2021/10/10 07:31:48;;;;;;;24.53;9.03;;;;;;;8.13;47.07;101946.65;126304;1096;104155;-78
2021/10/10 07:34:16;;;;;;;22.93;9.23;;;;;;;8.23;47.44;101943.88;126300;1096;104168;-78
2021/10/10 07:36:45;;;;;;;23.27;8.60;;;;;;;8.31;46.30;101935.66;126333;1098;104335;-78
2021/10/10 07:39:13;;;;;;;21.00;9.00;;;;;;;8.38;46.57;101940.48;126316;1099;104431;-78
2021/10/10 07:41:43;;;;;;;22.50;8.93;;;;;;;8.49;47.22;101936.90;126308;1099;104274;-78
2021/10/10 07:44:12;;;;;;;23.00;9.07;;;;;;;8.61;47.57;101931.59;126250;1096;104172;-78
2021/10/10 07:46:41;;;;;;;23.43;9.47;;;;;;;8.67;45.19;101926.77;126361;1096;104155;-78
2021/10/10 07:49:11;;;;;;;21.67;8.07;;;;;;;8.78;45.74;101922.24;126293;1096;104179;-78
2021/10/10 07:51:39;;;;;;;21.70;8.13;;;;;;;8.88;45.80;101924.67;126241;1096;104157;-78
2021/10/10 07:54:07;;;;;;;24.80;9.10;;;;;;;8.99;46.21;101930.57;126294;1096;104280;-78
2021/10/10 07:56:36;;;;;;;25.67;9.87;;;;;;;9.09;46.17;101921.63;126349;1099;104278;-78
2021/10/10 07:59:04;;;;;;;20.73;9.20;;;;;;;9.22;46.48;101924.20;126343;1099;104159;-78
2021/10/10 08:01:31;;;;;;;22.93;8.70;;;;;;;9.33;44.95;101923.20;126301;1098;104216;-78
2021/10/10 08:03:59;;;;;;;22.43;9.37;;;;;;;9.42;45.67;101924.58;126271;1099;104281;-78
2021/10/10 08:06:27;;;;;;;21.53;9.40;;;;;;;9.51;46.40;101919.91;126274;1096;104188;-77
2021/10/10 08:08:55;;;;;;;20.63;8.73;;;;;;;9.60;45.22;101923.11;126320;1099;104201;-78
2021/10/10 08:11:23;;;;;;;21.47;8.40;;;;;;;9.70;45.39;101924.58;126339;1096;104624;-78
2021/10/10 08:13:50;;;;;;;21.47;8.70;;;;;;;9.81;45.45;101926.14;126320;1096;104140;-79
2021/10/10 08:16:18;;;;;;;23.90;8.53;;;;;;;9.93;45.52;101918.13;126239;1097;104383;-78
2021/10/10 08:18:46;;;;;;;21.03;8.90;;;;;;;10.07;45.49;101917.24;126366;1099;104210;-79
2021/10/10 08:21:14;;;;;;;22.77;8.80;;;;;;;10.15;44.66;101914.19;126316;1099;104136;-78
2021/10/10 08:23:43;;;;;;;21.23;7.73;;;;;;;10.28;44.37;101908.84;126332;1099;104316;-78
2021/10/10 08:26:11;;;;;;;21.20;8.53;;;;;;;10.42;44.36;101905.38;126297;1099;104274;-78
2021/10/10 08:28:39;;;;;;;19.73;8.13;;;;;;;10.55;44.66;101906.06;126212;1099;104162;-78
2021/10/10 08:31:07;;;;;;;22.30;8.43;;;;;;;10.68;44.23;101897.20;126307;1099;104334;-78
2021/10/10 08:33:35;;;;;;;20.73;8.00;;;;;;;10.76;43.40;101899.42;126308;1099;104153;-78
2021/10/10 08:36:07;;;;;;;22.53;8.33;;;;;;;10.86;44.07;101898.25;126254;1096;104195;-78
2021/10/10 08:38:39;;;;;;;20.60;8.60;;;;;;;10.96;43.02;101895.31;126311;1099;104149;-78
2021/10/10 08:41:10;;;;;;;20.20;8.27;;;;;;;11.07;41.91;101898.54;126317;1099;104195;-78
2021/10/10 08:43:40;;;;;;;19.10;7.77;;;;;;;11.19;42.38;101895.70;126303;1099;104316;-77
2021/10/10 08:46:09;;;;;;;19.90;7.53;;;;;;;11.24;41.06;101896.86;126290;1096;104139;-78
2021/10/10 08:48:38;;;;;;;22.10;8.10;;;;;;;11.32;41.75;101890.29;126345;1099;104159;-78
2021/10/10 08:51:09;;;;;;;20.97;7.70;;;;;;;11.42;40.43;101886.46;126313;1099;104266;-78
2021/10/10 08:53:39;;;;;;;21.70;7.67;;;;;;;11.50;40.54;101887.77;126338;1096;104300;-78
2021/10/10 08:56:09;;;;;;;20.53;8.77;;;;;;;11.53;39.20;101880.86;126256;1095;104143;-79
2021/10/10 08:58:41;;;;;;;23.03;8.50;;;;;;;11.63;40.33;101885.80;126283;1099;104211;-78
2021/10/10 09:01:15;;;;;;;18.15;8.00;;;;;;;11.69;39.06;101873.87;126326;1099;104156;-78
2021/10/10 09:03:49;;;;;;;18.87;8.13;;;;;;;11.78;39.33;101867.29;126323;1099;104143;-78
2021/10/10 09:06:17;;;;;;;21.20;7.83;;;;;;;11.91;39.52;101872.38;126265;1099;104631;-78
2021/10/10 09:08:45;;;;;;;20.47;7.60;;;;;;;11.98;37.78;101864.03;126335;1098;104149;-78
2021/10/10 09:11:13;;;;;;;20.00;7.50;;;;;;;12.05;37.90;101857.34;126221;1099;104143;-78
2021/10/10 09:13:43;;;;;;;19.67;7.60;;;;;;;12.14;37.78;101859.53;126373;1096;104134;-77
2021/10/10 09:16:13;;;;;;;22.93;7.57;;;;;;;12.26;38.84;101860.15;126220;1099;104159;-78
2021/10/10 09:18:46;;;;;;;18.43;7.47;;;;;;;12.36;38.38;101859.80;126267;1098;104386;-78
2021/10/10 09:21:20;;;;;;;16.65;7.47;;;;;;;12.40;36.72;101858.22;126333;1099;104271;-78
2021/10/10 09:23:52;;;;;;;19.98;7.45;;;;;;;12.48;36.08;101863.86;126281;1099;104146;-76
2021/10/10 09:26:21;;;;;;;20.20;7.65;;;;;;;12.53;36.13;101855.38;126328;1099;104169;-79
2021/10/10 09:28:50;;;;;;;20.30;7.53;;;;;;;12.58;35.82;101856.50;126330;1096;104278;-78
2021/10/10 09:31:18;;;;;;;18.97;7.37;;;;;;;12.53;34.07;101851.85;126320;1096;104159;-78
2021/10/10 09:33:49;;;;;;;16.80;7.47;;;;;;;12.67;36.23;101847.23;126343;1096;104144;-78
2021/10/10 09:36:20;;;;;;;18.80;7.60;;;;;;;12.77;36.00;101842.48;126285;1099;104213;-78
2021/10/10 09:38:54;;;;;;;15.57;6.80;;;;;;;12.88;34.76;101847.37;126366;1099;104576;-79
2021/10/10 09:41:27;;;;;;;;;;;;;;;12.93;33.60;101844.14;126351;1099;104619;-78
2021/10/10 09:44:01;;;;;;;20.17;8.20;;;;;;;12.93;35.17;101838.88;126310;1099;104220;-78
2021/10/10 09:46:30;;;;;;;19.53;7.83;;;;;;;13.00;34.47;101837.42;126277;1099;104169;-78
2021/10/10 09:49:00;;;;;;;18.93;7.20;;;;;;;13.08;35.04;101841.31;126296;1096;104334;-78
2021/10/10 09:51:31;;;;;;;20.10;7.87;;;;;;;13.15;34.51;101833.69;126337;1096;104236;-78
2021/10/10 09:54:05;;;;;;;21.80;8.17;;;;;;;13.19;34.70;101844.45;126347;1096;104140;-78
2021/10/10 09:56:35;;;;;;;15.97;7.03;;;;;;;13.24;33.21;101837.64;126282;1096;105627;-79
2021/10/10 09:59:03;;;;;;;17.73;7.33;;;;;;;13.34;33.93;101833.76;126320;1099;104194;-79
2021/10/10 10:01:38;;;;;;;22.50;6.80;;;;;;;13.41;32.75;101829.66;126335;1099;104163;-78
2021/10/10 10:04:08;;;;;;;17.30;6.87;;;;;;;13.43;30.70;101831.54;126291;1099;104341;-78
2021/10/10 10:06:38;;;;;;;20.23;7.70;;;;;;;13.55;33.65;101825.89;126269;1099;104149;-78
2021/10/10 10:09:09;;;;;;;20.30;7.57;;;;;;;13.64;33.77;101831.58;126298;1096;107035;-79
2021/10/10 10:11:38;;;;;;;14.93;6.47;;;;;;;13.70;32.48;101824.77;126302;1099;104272;-77
2021/10/10 10:14:09;;;;;;;18.30;6.60;;;;;;;13.62;31.62;101820.07;126306;1099;104194;-77
2021/10/10 10:16:39;;;;;;;16.93;6.57;;;;;;;13.64;29.99;101830.69;126352;1096;104290;-77
2021/10/10 10:19:11;;;;;;;20.20;7.20;;;;;;;13.65;31.31;101830.76;126247;1099;118802;-78
2021/10/10 10:21:41;;;;;;;18.07;6.80;;;;;;;13.71;31.67;101829.22;126316;1099;104278;-78
2021/10/10 10:24:12;;;;;;;17.87;7.00;;;;;;;13.77;31.18;101827.73;126359;1099;104297;-78
2021/10/10 10:26:41;;;;;;;13.90;5.93;;;;;;;13.88;31.23;101827.32;126321;1099;104211;-78
2021/10/10 10:29:15;;;;;;;15.80;6.50;;;;;;;13.93;31.33;101831.05;126295;1096;104576;-77
2021/10/10 10:31:46;;;;;;;15.17;6.50;;;;;;;13.99;29.97;101836.59;126320;1096;104389;-78
2021/10/10 10:34:19;;;;;;;17.00;6.97;;;;;;;14.01;31.01;101830.55;126311;1096;104585;-78
2021/10/10 10:37:01;;;;;;;18.70;6.97;;;;;;;14.06;31.49;101827.22;126366;1096;104145;-78
2021/10/10 10:39:43;;;;;;;15.83;7.27;;;;;;;14.07;29.70;101826.36;126268;1099;104188;-78
2021/10/10 10:42:12;;;;;;;17.83;6.33;;;;;;;14.17;32.02;101826.82;126343;1099;104149;-78
2021/10/10 10:44:45;;;;;;;19.77;6.53;;;;;;;14.19;31.58;101826.88;126359;1096;104259;-79
2021/10/10 10:47:14;;;;;;;19.13;7.10;;;;;;;14.12;30.69;101822.20;126317;1099;104156;-78
2021/10/10 10:50:04;;;;;;;16.63;6.87;;;;;;;14.24;31.44;101825.33;126340;1098;104214;-78
2021/10/10 10:52:35;;;;;;;16.40;6.50;;;;;;;14.31;31.42;101823.87;126300;1096;104272;-78
2021/10/10 10:55:17;;;;;;;17.23;6.87;;;;;;;14.39;29.88;101827.72;126304;1099;104182;-78
2021/10/10 10:57:52;;;;;;;15.30;6.73;;;;;;;14.37;30.92;101824.13;126278;1096;104140;-77
2021/10/10 11:00:26;;;;;;;18.67;7.63;;;;;;;14.36;30.73;101817.03;126343;1099;104150;-78
2021/10/10 11:03:10;;;;;;;19.10;6.90;;;;;;;14.35;30.90;101816.14;126327;1099;104619;-77
2021/10/10 11:05:45;;;;;;;16.97;6.97;;;;;;;14.41;31.81;101814.58;126325;1099;104191;-78
2021/10/10 11:08:34;;;;;;;17.77;7.57;;;;;;;14.43;31.21;101810.25;126307;1099;104150;-77
2021/10/10 11:11:15;;;;;;;18.17;6.77;;;;;;;14.47;32.20;101809.55;126317;1099;104149;-78
2021/10/10 11:13:46;;;;;;;20.30;7.25;;;;;;;14.46;31.23;101810.38;126340;1099;104766;-78
2021/10/10 11:16:16;;;;;;;17.77;7.33;;;;;;;14.48;32.13;101796.41;126338;1096;104134;-78
2021/10/10 11:18:47;;;;;;;18.70;7.03;;;;;;;14.53;31.25;101793.95;126238;1096;104213;-78